Time;durP1;ratioP1;P1;durP2;ratioP2;P2;SDS_P1;SDS_P2;PMS_P1;PMS_P2;Temp;Humidity;BMP_temperature;BMP_pressure;BME280_temperature;BME280_humidity;BME280_pressure;Samples;Min_cycle;Max_cycle;Signal;HPM_P1;HPM_P2
2022/07/01 00:01:42;;;;;;;3.90;3.60;;;23.70;75.20;;;26.19;55.28;101024.34;5105689;28;20656;-63
2022/07/01 00:04:27;;;;;;;4.87;3.60;;;23.60;75.30;;;26.06;55.12;101024.84;5094041;28;20184;-63
2022/07/01 00:06:55;;;;;;;5.27;3.40;;;23.50;75.60;;;26.00;55.01;101028.66;5081468;28;20197;-62
2022/07/01 00:09:23;;;;;;;5.40;3.87;;;23.40;76.00;;;25.96;55.29;101027.56;5072710;28;20200;-62
2022/07/01 00:11:52;;;;;;;3.70;3.40;;;23.40;76.60;;;25.90;55.74;101017.84;5072572;28;20241;-62
2022/07/01 00:14:22;;;;;;;4.03;3.27;;;23.30;76.60;;;25.83;55.33;101018.13;5072759;28;20223;-63
2022/07/01 00:16:50;;;;;;;4.13;3.70;;;23.20;76.60;;;25.79;56.21;101000.03;5072871;28;20216;-63
2022/07/01 00:19:18;;;;;;;4.47;3.47;;;23.20;76.80;;;25.72;56.26;101002.97;5073435;28;20194;-62
2022/07/01 00:21:46;;;;;;;5.07;4.40;;;23.10;76.60;;;25.65;55.48;101005.13;5072783;28;20263;-62
2022/07/01 00:24:14;;;;;;;3.80;3.40;;;23.10;76.60;;;25.59;56.12;101018.88;5073849;28;20193;-63
2022/07/01 00:26:41;;;;;;;4.77;3.80;;;23.00;76.70;;;25.52;56.43;101022.66;5076481;28;20185;-62
2022/07/01 00:29:10;;;;;;;5.13;3.97;;;23.00;77.00;;;25.47;56.47;101025.31;5076170;28;20185;-62
2022/07/01 00:31:38;;;;;;;3.80;3.50;;;22.90;77.30;;;25.43;56.54;101043.09;5075825;28;20202;-63
2022/07/01 00:34:05;;;;;;;5.20;4.30;;;22.80;77.40;;;25.38;56.24;101034.97;5076076;28;20223;-63
2022/07/01 00:36:32;;;;;;;4.90;4.17;;;22.80;77.90;;;25.32;56.93;101038.72;5075909;28;20189;-62
2022/07/01 00:39:00;;;;;;;5.63;4.83;;;22.70;78.20;;;25.27;57.36;101033.31;5075911;28;20263;-62
2022/07/01 00:41:27;;;;;;;5.27;4.77;;;22.70;78.60;;;25.22;57.49;101038.66;5075690;28;20209;-62
2022/07/01 00:43:57;;;;;;;8.00;5.40;;;22.70;78.60;;;25.18;57.32;101037.59;5076520;28;20185;-62
2022/07/01 00:46:26;;;;;;;5.60;5.10;;;22.60;78.80;;;25.13;57.26;101040.25;5075755;28;20189;-62
2022/07/01 00:48:57;;;;;;;6.17;5.60;;;22.60;78.80;;;25.10;57.22;101056.97;5076984;28;20259;-62
2022/07/01 00:51:25;;;;;;;5.97;5.47;;;22.50;78.80;;;25.08;57.05;101048.31;5078386;28;20209;-63
2022/07/01 00:53:53;;;;;;;5.20;4.70;;;22.50;78.40;;;25.04;57.07;101058.00;5078203;28;20207;-62
2022/07/01 00:56:21;;;;;;;6.53;5.90;;;22.40;78.20;;;25.00;56.88;101078.47;5081104;28;20280;-62
2022/07/01 00:58:48;;;;;;;6.33;5.67;;;22.40;78.20;;;24.98;57.53;101075.22;5078941;28;20204;-63
2022/07/01 01:01:15;;;;;;;6.43;5.87;;;22.40;78.30;;;24.98;56.52;101075.22;5076922;28;20209;-62
2022/07/01 01:03:45;;;;;;;6.57;6.00;;;22.30;78.20;;;25.00;57.23;101083.03;5078440;28;20266;-63
2022/07/01 01:06:13;;;;;;;6.23;5.73;;;22.30;78.30;;;25.00;57.12;101078.47;5083948;28;20592;-63
2022/07/01 01:08:40;;;;;;;5.90;5.40;;;22.30;78.20;;;25.02;56.46;101076.31;5097318;28;20201;-63
2022/07/01 01:11:08;;;;;;;4.97;4.57;;;22.30;78.30;;;25.01;56.81;101085.47;5096043;28;20212;-63
2022/07/01 01:13:36;;;;;;;5.57;5.07;;;22.30;78.00;;;25.02;56.70;101079.00;5096383;28;20716;-63
2022/07/01 01:16:04;;;;;;;5.30;4.90;;;22.30;78.20;;;25.00;56.57;101080.34;5098505;28;20192;-64
2022/07/01 01:18:33;;;;;;;5.20;4.67;;;22.30;77.70;;;24.98;56.63;101085.19;5097843;28;20196;-63
2022/07/01 01:21:02;;;;;;;4.37;3.90;;;22.30;78.10;;;24.98;56.29;101091.41;5096194;28;20287;-63
2022/07/01 01:23:29;;;;;;;4.90;4.50;;;22.30;78.00;;;24.98;56.00;101096.78;5096897;28;20558;-63
2022/07/01 01:25:57;;;;;;;4.37;3.93;;;22.20;77.70;;;24.98;56.21;101096.78;5097484;28;20199;-63
2022/07/01 01:28:26;;;;;;;3.87;3.57;;;22.20;77.50;;;24.98;55.70;101091.41;5096841;28;20189;-63
2022/07/01 01:30:53;;;;;;;5.50;4.30;;;22.20;77.20;;;25.02;56.17;101092.47;5096459;28;20188;-63
2022/07/01 01:33:21;;;;;;;3.90;3.23;;;22.20;77.20;;;25.04;55.38;101090.34;5095376;28;20212;-63
2022/07/01 01:35:48;;;;;;;3.07;2.87;;;22.20;77.80;;;25.05;55.21;101081.19;5094775;28;20192;-64
2022/07/01 01:38:17;;;;;;;4.07;3.77;;;22.20;76.80;;;25.06;55.17;101077.41;5095281;28;20295;-61
2022/07/01 01:40:44;;;;;;;4.47;3.93;;;22.20;76.60;;;25.06;55.38;101088.19;5093732;28;20693;-62
2022/07/01 01:43:11;;;;;;;4.10;3.70;;;22.30;76.60;;;25.06;55.41;101088.19;5095481;28;20185;-64
2022/07/01 01:45:40;;;;;;;3.30;3.10;;;22.20;76.50;;;25.05;55.00;101086.59;5095000;28;20214;-63
2022/07/01 01:48:09;;;;;;;4.93;3.43;;;22.20;76.20;;;25.02;54.97;101095.19;5095144;28;20692;-63
2022/07/01 01:50:37;;;;;;;3.47;3.27;;;22.20;76.20;;;25.01;54.95;101106.22;5094675;28;20193;-63
2022/07/01 01:53:04;;;;;;;3.83;3.53;;;22.20;76.10;;;25.01;55.28;101112.41;5094919;28;20197;-63
2022/07/01 01:55:33;;;;;;;4.43;3.73;;;22.20;76.40;;;24.97;55.22;101127.47;5094810;28;20197;-63
2022/07/01 01:58:00;;;;;;;6.33;3.87;;;22.20;76.50;;;24.92;55.25;101122.06;5094724;28;20189;-64
2022/07/01 02:00:28;;;;;;;6.40;4.13;;;22.20;76.50;;;24.83;54.75;101127.13;5094355;28;20310;-61
2022/07/01 02:02:56;;;;;;;5.60;4.13;;;22.10;76.40;;;24.73;55.57;101142.34;5094493;28;20227;-61
2022/07/01 02:05:23;;;;;;;3.40;3.10;;;22.00;76.50;;;24.61;55.21;101155.19;5094672;28;20192;-63
2022/07/01 02:07:50;;;;;;;4.10;3.33;;;21.90;76.20;;;24.47;55.78;101164.75;5075001;28;20193;-64
2022/07/01 02:10:18;;;;;;;3.63;2.73;;;21.80;76.00;;;24.35;55.35;101181.06;5074223;28;20193;-63
2022/07/01 02:12:47;;;;;;;3.47;3.10;;;21.60;75.80;;;24.22;55.27;101184.97;5074171;28;20209;-63
2022/07/01 02:15:14;;;;;;;3.30;2.20;;;21.60;75.80;;;24.15;55.52;101176.28;5074046;28;20679;-63
2022/07/01 02:17:42;;;;;;;5.40;2.40;;;21.50;75.90;;;24.08;55.31;101172.97;5073999;28;20185;-61
2022/07/01 02:20:14;;;;;;;4.53;3.17;;;21.40;75.90;;;24.00;55.28;101170.72;5074010;28;20195;-63
2022/07/01 02:22:42;;;;;;;5.80;2.80;;;21.30;76.00;;;23.89;55.45;101174.34;5073600;28;20217;-61
2022/07/01 02:25:09;;;;;;;4.70;2.80;;;21.20;76.00;;;23.77;55.47;101180.94;5073587;28;20193;-63
2022/07/01 02:27:37;;;;;;;3.37;2.20;;;21.10;76.00;;;23.67;55.71;101191.56;5073271;28;20225;-63
2022/07/01 02:30:07;;;;;;;3.87;2.77;;;21.00;76.40;;;23.60;55.82;101207.06;5073170;28;20532;-63
2022/07/01 02:32:35;;;;;;;5.13;2.87;;;20.90;76.70;;;23.51;55.85;101214.72;5073359;28;20216;-63
2022/07/01 02:35:03;;;;;;;4.40;2.60;;;20.80;77.10;;;23.44;56.05;101208.72;5073501;28;20221;-63
2022/07/01 02:37:30;;;;;;;4.70;2.60;;;20.70;77.10;;;23.40;56.05;101212.97;5073858;28;20200;-63
2022/07/01 02:39:58;;;;;;;4.03;2.53;;;20.70;77.10;;;23.32;56.26;101210.69;5073704;28;20189;-63
2022/07/01 02:42:26;;;;;;;4.40;2.63;;;20.60;77.00;;;23.20;56.30;101213.44;5073687;28;20213;-62
2022/07/01 02:44:54;;;;;;;5.87;2.67;;;20.60;77.20;;;23.15;56.48;101209.88;5074961;28;20185;-63
2022/07/01 02:47:23;;;;;;;4.00;3.27;;;20.50;77.40;;;23.12;56.97;101215.75;5073594;28;20212;-63
2022/07/01 02:49:56;;;;;;;5.70;3.13;;;20.40;77.80;;;23.06;56.95;101214.03;5073574;28;20193;-63
2022/07/01 02:52:23;;;;;;;3.80;2.80;;;20.30;78.20;;;23.05;56.85;101221.28;5073588;28;20224;-62
2022/07/01 02:54:51;;;;;;;3.17;2.57;;;20.30;78.00;;;23.01;56.88;101217.44;5073462;28;20205;-63
2022/07/01 02:57:18;;;;;;;4.87;2.80;;;20.30;78.30;;;23.03;57.33;101203.78;5073316;28;20264;-63
2022/07/01 02:59:46;;;;;;;6.00;3.30;;;20.30;79.00;;;23.05;57.44;101204.34;5073743;28;20185;-63
2022/07/01 03:02:13;;;;;;;4.83;2.60;;;20.20;79.30;;;23.07;57.50;101229.09;5073174;28;20209;-63
2022/07/01 03:04:42;;;;;;;6.67;2.97;;;20.20;79.20;;;23.05;57.24;101225.84;5073144;28;20185;-63
2022/07/01 03:07:09;;;;;;;5.07;2.67;;;20.20;79.00;;;23.04;57.35;101229.56;5087080;28;20193;-60
2022/07/01 03:09:39;;;;;;;4.80;2.53;;;20.20;79.20;;;23.08;57.27;101230.72;5093247;28;20192;-63
2022/07/01 03:14:56;;;;;;;5.07;2.57;;;20.20;78.80;;;23.06;56.59;101230.16;5093503;28;20717;-62
2022/07/01 03:17:24;;;;;;;4.40;2.00;;;20.20;78.00;;;23.05;56.52;101231.22;5093540;28;20189;-64
2022/07/01 03:19:53;;;;;;;2.80;2.17;;;20.20;77.80;;;23.04;56.44;101230.38;5093727;28;20199;-61
2022/07/01 03:22:22;;;;;;;3.53;2.30;;;20.20;77.80;;;23.07;56.44;101234.47;5092859;28;20208;-62
2022/07/01 03:24:51;;;;;;;5.80;2.30;;;20.20;77.80;;;23.09;56.31;101226.97;5125839;28;20233;-62
2022/07/01 03:27:20;;;;;;;3.53;2.20;;;20.20;77.60;;;23.08;55.97;101236.91;5093371;28;20195;-62
2022/07/01 03:29:48;;;;;;;4.07;2.40;;;20.20;77.20;;;23.07;55.94;101240.66;5093338;28;20189;-64
2022/07/01 03:32:17;;;;;;;8.33;2.53;;;20.20;77.00;;;23.10;56.10;101244.72;5091756;28;20311;-62
2022/07/01 03:34:47;;;;;;;5.20;2.43;;;20.20;77.40;;;23.13;56.05;101249.63;5093204;28;20211;-62
2022/07/01 03:37:19;;;;;;;3.10;2.00;;;20.20;77.20;;;23.13;55.82;101261.16;5093507;28;20188;-64
2022/07/01 03:39:47;;;;;;;4.00;2.17;;;20.20;76.90;;;23.13;55.71;101260.34;5093160;28;20200;-63
2022/07/01 03:42:16;;;;;;;4.23;2.00;;;20.20;76.40;;;23.11;55.29;101265.94;5092736;28;20208;-64
2022/07/01 03:44:46;;;;;;;4.43;2.00;;;20.20;76.40;;;23.10;55.43;101274.28;5093120;28;20189;-63
2022/07/01 03:47:14;;;;;;;3.87;2.13;;;20.30;76.20;;;23.09;55.39;101280.69;5093293;28;20184;-62
2022/07/01 03:49:41;;;;;;;5.03;1.83;;;20.30;76.40;;;23.07;55.23;101293.56;5093163;28;20206;-63
2022/07/01 03:52:08;;;;;;;2.73;2.10;;;20.20;75.80;;;23.01;55.19;101294.53;5092640;28;20216;-62
2022/07/01 03:54:38;;;;;;;3.47;2.00;;;20.20;75.60;;;22.95;55.06;101296.31;5092966;28;20216;-62
2022/07/01 03:57:09;;;;;;;4.47;2.10;;;20.20;75.50;;;22.90;55.02;101302.41;5092995;28;20583;-70
2022/07/01 03:59:39;;;;;;;3.47;1.93;;;20.20;75.50;;;22.90;55.25;101306.94;5094382;28;20226;-61
2022/07/01 04:02:08;;;;;;;2.40;1.73;;;20.10;75.70;;;22.92;55.13;101317.47;5096524;28;20228;-63
2022/07/01 04:04:36;;;;;;;2.57;1.50;;;20.10;75.40;;;22.84;55.02;101324.84;5096685;28;20215;-64
2022/07/01 04:07:07;;;;;;;4.33;1.40;;;20.10;75.00;;;22.80;54.45;101325.56;5083328;28;20262;-64
2022/07/01 04:09:34;;;;;;;3.27;1.30;;;20.10;75.00;;;22.73;54.92;101335.63;5075185;28;20189;-64
2022/07/01 04:12:07;;;;;;;2.60;1.60;;;20.00;74.60;;;22.68;54.74;101344.41;5075706;28;20698;-64
2022/07/01 04:14:34;;;;;;;3.90;1.50;;;20.00;74.70;;;22.65;54.86;101350.28;5076031;28;20243;-64
2022/07/01 04:17:03;;;;;;;1.30;1.00;;;19.90;74.80;;;22.58;54.92;101365.63;5076129;28;20185;-64
2022/07/01 04:19:31;;;;;;;1.93;1.47;;;19.90;74.80;;;22.57;54.87;101380.13;5075629;28;20200;-64
2022/07/01 04:24:44;;;;;;;2.73;1.50;;;19.90;75.20;;;22.62;54.92;101369.53;5076586;28;20189;-63
2022/07/01 04:27:13;;;;;;;3.57;1.57;;;19.90;75.40;;;22.65;54.68;101361.00;5075874;28;20192;-63
2022/07/01 04:29:40;;;;;;;3.60;1.77;;;19.90;75.20;;;22.62;55.01;101342.69;5075875;28;20652;-63
2022/07/01 04:32:08;;;;;;;1.97;1.60;;;19.90;74.90;;;22.58;54.96;101341.47;5075557;28;20296;-63
2022/07/01 04:34:35;;;;;;;3.87;1.87;;;19.80;75.10;;;22.59;55.20;101345.81;5075742;28;20221;-63
2022/07/01 04:37:03;;;;;;;3.07;1.40;;;19.80;75.70;;;22.61;54.82;101338.38;5075576;28;20185;-63
2022/07/01 04:39:31;;;;;;;2.57;1.67;;;19.80;75.50;;;22.64;55.29;101337.06;5075918;28;20224;-63
2022/07/01 04:42:01;;;;;;;2.83;1.33;;;19.80;75.80;;;22.64;55.20;101332.53;5075394;28;20217;-63
2022/07/01 04:44:32;;;;;;;1.77;1.50;;;19.80;75.80;;;22.66;55.12;101348.38;5075593;28;20631;-63
2022/07/01 04:47:01;;;;;;;3.30;1.40;;;19.80;76.20;;;22.67;55.62;101353.53;5075341;28;20185;-63
2022/07/01 04:49:29;;;;;;;2.43;1.20;;;19.80;76.10;;;22.68;55.41;101363.19;5075969;28;20647;-63
2022/07/01 04:51:57;;;;;;;2.23;1.20;;;19.80;75.80;;;22.67;55.17;101361.59;5075447;28;20695;-63
2022/07/01 04:54:28;;;;;;;2.83;1.40;;;19.80;75.80;;;22.64;55.10;101354.00;5075836;28;20212;-63
2022/07/01 04:56:55;;;;;;;1.70;1.33;;;19.80;75.50;;;22.63;54.93;101357.72;5075320;28;20698;-63
2022/07/01 04:59:23;;;;;;;2.20;1.43;;;19.80;75.80;;;22.62;55.46;101361.47;5075821;28;20190;-63
2022/07/01 05:01:52;;;;;;;1.60;1.37;;;19.80;76.20;;;22.63;55.14;101364.97;5074751;28;20209;-63
2022/07/01 05:04:19;;;;;;;1.37;1.20;;;19.80;76.10;;;22.63;55.01;101368.47;5076338;28;20219;-63
2022/07/01 05:06:47;;;;;;;2.13;1.40;;;19.80;75.90;;;22.60;54.82;101362.72;5085841;28;20604;-63
2022/07/01 05:09:15;;;;;;;1.40;1.30;;;19.80;75.70;;;22.58;55.18;101371.00;5095633;28;20184;-63
2022/07/01 05:11:42;;;;;;;3.40;1.60;;;19.80;75.90;;;22.57;55.50;101372.06;5093659;28;20212;-63
2022/07/01 05:14:09;;;;;;;2.83;1.10;;;19.70;76.00;;;22.56;55.28;101375.00;5095234;28;20188;-62
2022/07/01 05:16:37;;;;;;;2.90;1.37;;;19.70;75.70;;;22.54;55.03;101374.41;5111291;28;20184;-62
2022/07/01 05:22:00;;;;;;;1.57;1.30;;;19.70;75.40;;;22.44;55.14;101406.41;5094951;28;20220;-64
2022/07/01 05:24:31;;;;;;;2.03;1.03;;;19.60;75.00;;;22.42;54.68;101409.31;5095157;28;20233;-63
2022/07/01 05:27:00;;;;;;;1.30;1.20;;;19.60;75.10;;;22.43;54.70;101405.59;5095141;28;20193;-63
2022/07/01 05:29:28;;;;;;;1.90;1.33;;;19.60;75.10;;;22.47;54.72;101404.06;5094616;28;20188;-63
2022/07/01 05:31:56;;;;;;;1.50;1.40;;;19.60;75.60;;;22.52;55.18;101398.81;5094501;28;20209;-63
2022/07/01 05:34:25;;;;;;;1.67;1.27;;;19.70;75.90;;;22.55;54.77;101398.34;5093914;28;20203;-63
2022/07/01 05:36:52;;;;;;;1.40;1.30;;;19.70;75.60;;;22.58;54.99;101397.06;5094903;28;20223;-63
2022/07/01 05:39:20;;;;;;;5.63;1.57;;;19.70;75.50;;;22.57;54.65;101406.97;5094775;28;20192;-63
2022/07/01 05:41:47;;;;;;;3.83;1.77;;;19.70;75.30;;;22.55;54.44;101409.06;5094252;28;20208;-64
2022/07/01 05:44:15;;;;;;;1.97;1.87;;;19.70;75.20;;;22.53;55.06;101405.81;5094625;28;20669;-64
2022/07/01 05:46:42;;;;;;;2.37;1.90;;;19.70;75.30;;;22.55;54.78;101419.81;5094684;28;20196;-63
2022/07/01 05:49:10;;;;;;;3.03;1.70;;;19.70;75.50;;;22.57;54.62;101417.69;5109709;28;20193;-64
2022/07/01 05:51:45;;;;;;;5.97;1.77;;;19.70;75.40;;;22.60;54.49;101417.25;5093974;28;20765;-64
2022/07/01 05:54:13;;;;;;;2.57;1.97;;;19.70;75.50;;;22.68;54.93;101411.50;5110281;28;20253;-63
2022/07/01 05:56:40;;;;;;;1.90;1.80;;;19.80;76.90;;;22.79;54.93;101408.00;5093974;28;20177;-63
2022/07/01 05:59:08;;;;;;;3.47;2.23;;;19.80;76.10;;;22.87;54.55;101407.59;5094098;28;20221;-64
2022/07/01 06:01:35;;;;;;;2.10;1.60;;;19.90;75.60;;;22.88;54.28;101403.88;5093874;28;20208;-63
2022/07/01 06:04:03;;;;;;;1.83;1.73;;;19.90;74.60;;;22.87;53.91;101401.41;5094189;28;20195;-63
2022/07/01 06:06:31;;;;;;;2.90;1.87;;;19.90;74.50;;;22.87;53.83;101407.59;5085608;28;20612;-64
2022/07/01 06:09:00;;;;;;;3.17;2.00;;;19.90;74.30;;;22.89;53.76;101410.06;5073620;28;20199;-64
2022/07/01 06:11:27;;;;;;;2.20;2.10;;;19.90;74.10;;;22.86;53.56;101410.53;5073002;28;20205;-62
2022/07/01 06:13:54;;;;;;;1.90;1.80;;;19.90;73.50;;;22.83;53.53;101414.50;5073562;28;20652;-63
2022/07/01 06:16:22;;;;;;;2.50;2.30;;;19.90;73.50;;;22.82;53.56;101404.81;5083773;27;20242;-63
2022/07/01 06:18:55;;;;;;;2.10;2.00;;;19.90;73.40;;;22.82;53.51;101412.88;5112877;28;20234;-63
2022/07/01 06:21:22;;;;;;;2.27;1.80;;;19.90;73.40;;;22.82;53.34;101415.56;5114068;28;20215;-63
2022/07/01 06:23:53;;;;;;;2.63;1.80;;;19.90;73.40;;;22.82;53.33;101420.13;5094536;28;20197;-62
2022/07/01 06:26:21;;;;;;;3.03;1.83;;;19.90;73.30;;;22.82;53.31;101415.56;5086992;28;20227;-66
2022/07/01 06:28:49;;;;;;;9.40;6.17;;;19.90;73.60;;;22.86;53.68;101416.72;5081089;28;20192;-65
2022/07/01 06:31:16;;;;;;;4.40;2.50;;;19.90;73.90;;;22.94;53.52;101412.03;5091613;27;20240;-65
2022/07/01 06:33:44;;;;;;;2.27;1.80;;;20.00;74.00;;;23.03;53.38;101411.41;5085067;28;20271;-65
2022/07/01 06:36:14;;;;;;;3.10;2.90;;;20.00;74.20;;;23.12;52.92;101411.81;5084661;28;20219;-65
2022/07/01 06:38:42;;;;;;;3.80;3.10;;;20.10;73.50;;;23.15;52.64;101405.97;5093900;28;20199;-66
2022/07/01 06:41:31;;;;;;;3.87;3.50;;;20.10;73.00;;;23.18;52.57;101413.53;5076075;28;20212;-67
2022/07/01 06:44:02;;;;;;;3.13;2.93;;;20.10;73.10;;;23.21;52.46;101413.06;5091804;28;20192;-66
2022/07/01 06:46:30;;;;;;;3.23;3.03;;;20.10;72.80;;;23.24;52.19;101424.16;5103063;28;20180;-65
2022/07/01 06:48:59;;;;;;;3.57;2.87;;;20.20;72.80;;;23.28;52.38;101408.34;5069835;28;20220;-67
2022/07/01 06:51:28;;;;;;;3.80;2.73;;;20.20;72.70;;;23.33;52.35;101413.81;5087055;28;20230;-66
2022/07/01 06:54:03;;;;;;;3.73;3.50;;;20.30;72.80;;;23.39;52.27;101439.78;5092137;28;20212;-66
2022/07/01 06:56:36;;;;;;;3.80;3.40;;;20.30;72.10;;;23.37;51.84;101428.44;5083803;28;20221;-66
2022/07/01 06:59:27;;;;;;;3.67;3.37;;;20.40;71.90;;;23.34;51.75;101434.28;5072363;28;20553;-66
2022/07/01 07:01:59;;;;;;;3.53;3.13;;;20.30;71.70;;;23.43;51.28;101449.81;5102980;27;20323;-65
2022/07/01 07:04:26;;;;;;;3.53;3.30;;;20.40;71.20;;;23.45;51.33;101449.56;5089631;28;20295;-64
2022/07/01 07:07:14;;;;;;;5.40;4.67;;;20.40;71.10;;;23.46;51.23;101456.56;5089497;28;20192;-65
2022/07/01 07:09:41;;;;;;;4.43;3.93;;;20.40;70.90;;;23.44;51.62;101459.47;5089601;28;20189;-66
2022/07/01 07:12:10;;;;;;;4.20;3.80;;;20.40;71.10;;;23.40;50.84;101449.47;5095168;28;20200;-66
2022/07/01 07:14:38;;;;;;;4.23;3.43;;;20.40;70.50;;;23.37;51.02;101450.75;5079256;28;20192;-66
2022/07/01 07:17:06;;;;;;;5.60;4.37;;;20.40;70.50;;;23.40;51.02;101460.22;5093234;28;20204;-66
2022/07/01 07:19:34;;;;;;;4.33;3.93;;;20.40;70.60;;;23.38;50.81;101475.75;5091974;28;20197;-64
2022/07/01 07:22:02;;;;;;;6.30;4.30;;;20.40;70.30;;;23.40;50.86;101473.66;5097254;28;20541;-66
2022/07/01 07:24:30;;;;;;;4.40;3.90;;;20.40;70.10;;;23.42;50.85;101458.09;5108798;28;20196;-64
2022/07/01 07:26:57;;;;;;;3.87;3.53;;;20.40;70.10;;;23.46;50.49;101454.66;5094056;28;20177;-66
2022/07/01 07:29:24;;;;;;;4.23;3.93;;;20.40;69.80;;;23.50;50.28;101471.16;5093635;28;20214;-65
2022/07/01 07:31:53;;;;;;;3.87;3.57;;;20.40;69.10;;;23.48;49.76;101457.13;5104173;28;20275;-64
2022/07/01 07:34:21;;;;;;;4.70;4.13;;;20.50;68.90;;;23.48;49.73;101459.81;5093837;27;20209;-66
2022/07/01 07:36:49;;;;;;;4.33;3.97;;;20.50;69.20;;;23.53;50.04;101470.66;5098269;28;20211;-66
2022/07/01 07:39:16;;;;;;;4.47;4.00;;;20.50;69.10;;;23.57;50.21;101477.19;5088432;28;20473;-66
2022/07/01 07:41:44;;;;;;;5.23;4.83;;;20.50;69.10;;;23.62;49.89;101479.97;5105750;28;20269;-65
2022/07/01 07:44:11;;;;;;;6.73;4.83;;;20.60;68.90;;;23.66;49.81;101483.78;5099333;28;20193;-66
2022/07/01 07:46:39;;;;;;;5.37;4.70;;;20.60;69.30;;;23.69;49.48;101480.63;5099538;28;20191;-66
2022/07/01 07:49:08;;;;;;;5.00;4.50;;;20.60;68.70;;;23.70;49.50;101478.75;5097051;28;20196;-68
2022/07/01 07:51:36;;;;;;;4.97;4.57;;;20.60;68.70;;;23.74;49.39;101488.78;5095533;28;20220;-67
2022/07/01 07:54:03;;;;;;;4.23;3.93;;;20.60;68.70;;;23.77;49.40;101493.66;5096951;28;20197;-67
2022/07/01 07:56:31;;;;;;;5.77;5.27;;;20.60;68.70;;;23.81;49.65;101496.69;5096497;28;20218;-67
2022/07/01 07:58:59;;;;;;;6.13;5.57;;;20.70;69.10;;;23.80;49.46;101487.81;5096482;28;20189;-68
2022/07/01 08:01:26;;;;;;;6.73;5.20;;;20.70;68.90;;;23.77;49.81;101488.28;5095559;28;20216;-67
2022/07/01 08:03:54;;;;;;;6.30;5.70;;;20.70;69.10;;;23.77;49.74;101492.88;5094634;28;20206;-66
2022/07/01 08:06:23;;;;;;;6.47;5.87;;;20.70;69.30;;;23.74;49.75;101493.34;5094842;28;20188;-67
2022/07/01 08:08:51;;;;;;;7.43;6.23;;;20.70;69.40;;;23.73;50.21;101497.06;5095790;28;20697;-67
2022/07/01 08:11:18;;;;;;;7.60;6.80;;;20.70;69.70;;;23.71;49.79;101499.19;5095040;28;20269;-67
2022/07/01 08:13:46;;;;;;;7.13;6.43;;;20.60;68.90;;;23.65;49.85;101506.38;5096966;27;20200;-67
2022/07/01 08:16:13;;;;;;;7.67;6.97;;;20.60;69.00;;;23.61;49.71;101515.97;5097049;28;20298;-67
2022/07/01 08:18:41;;;;;;;8.00;7.20;;;20.60;69.40;;;23.60;50.31;101511.66;5116316;28;20187;-67
2022/07/01 08:21:10;;;;;;;10.57;7.37;;;20.60;69.50;;;23.57;50.50;101509.44;5098100;28;20255;-67
2022/07/01 08:23:39;;;;;;;11.00;7.10;;;20.60;69.90;;;23.55;50.58;101516.94;5094891;28;20279;-67
2022/07/01 08:26:06;;;;;;;7.37;6.63;;;20.60;70.10;;;23.50;50.61;101514.16;5096263;28;20238;-67
2022/07/01 08:28:34;;;;;;;7.40;5.77;;;20.60;70.10;;;23.47;50.96;101520.81;5095582;28;20207;-68
2022/07/01 08:31:01;;;;;;;13.00;9.10;;;20.60;70.40;;;23.52;51.24;101522.78;5095167;28;20302;-66
2022/07/01 08:33:29;;;;;;;13.37;9.57;;;20.60;70.60;;;23.50;51.22;101525.72;5099119;27;20212;-68
2022/07/01 08:35:57;;;;;;;13.73;10.80;;;20.60;70.70;;;23.52;51.33;101530.84;5107905;28;20298;-67
2022/07/01 08:38:25;;;;;;;12.33;11.00;;;20.60;71.20;;;23.52;51.77;101539.75;5101476;28;20234;-67
2022/07/01 08:40:53;;;;;;;13.90;11.67;;;20.60;71.60;;;23.52;51.55;101534.38;5094321;28;20272;-69
2022/07/01 08:43:21;;;;;;;11.77;10.57;;;20.50;71.80;;;23.52;51.74;101533.53;5093483;28;20193;-67
2022/07/01 08:45:51;;;;;;;15.90;13.03;;;20.50;72.20;;;23.53;51.86;101535.19;5093805;27;20551;-67
2022/07/01 08:48:19;;;;;;;14.77;11.57;;;20.50;72.50;;;23.53;51.81;101540.56;5095619;28;20264;-69
2022/07/01 08:50:48;;;;;;;16.63;14.70;;;20.50;72.10;;;23.48;51.95;101535.09;5094004;28;20599;-67
2022/07/01 08:53:17;;;;;;;16.77;14.77;;;20.50;72.00;;;23.41;52.12;101537.09;5094248;28;20205;-68
2022/07/01 08:58:33;;;;;;;18.83;14.97;;;20.50;72.20;;;23.40;52.24;101540.84;5075212;28;20364;-68
2022/07/01 09:01:17;;;;;;;18.53;16.10;;;20.50;72.20;;;23.41;52.26;101543.31;5099914;28;20219;-67
2022/07/01 09:03:45;;;;;;;16.53;15.03;;;20.50;72.70;;;23.52;52.21;101549.66;5090801;28;20208;-68
2022/07/01 09:06:15;;;;;;;25.20;17.60;;;20.50;72.60;;;23.54;52.18;101558.31;5098845;27;20223;-67
2022/07/01 09:08:45;;;;;;;20.40;17.27;;;20.50;72.70;;;23.55;51.79;101565.31;5094144;28;20208;-68
2022/07/01 09:11:15;;;;;;;17.83;16.13;;;20.50;72.50;;;23.55;52.22;101568.03;5090275;28;20300;-67
2022/07/01 09:13:45;;;;;;;22.03;15.80;;;20.50;72.50;;;23.54;51.94;101577.13;5096077;28;20203;-68
2022/07/01 09:16:15;;;;;;;17.17;14.60;;;20.50;72.10;;;23.53;52.02;101583.56;5097408;28;20215;-67
2022/07/01 09:19:02;;;;;;;16.37;14.80;;;20.60;72.30;;;23.41;52.09;101585.47;5094078;28;20192;-67
2022/07/01 09:21:32;;;;;;;15.30;13.80;;;20.60;72.00;;;23.41;51.97;101569.34;5090899;28;20208;-67
2022/07/01 09:24:05;;;;;;;16.83;13.77;;;20.50;71.40;;;23.41;52.04;101575.56;5092413;28;20241;-68
2022/07/01 09:26:32;;;;;;;15.90;14.00;;;20.50;72.00;;;23.50;52.12;101575.97;5093749;28;20200;-68
2022/07/01 09:29:02;;;;;;;14.40;12.20;;;20.50;72.10;;;23.60;51.94;101581.56;5094421;28;20193;-68
2022/07/01 09:31:34;;;;;;;16.63;14.53;;;20.50;72.00;;;23.65;51.56;101592.41;5092872;28;20212;-68
2022/07/01 09:34:08;;;;;;;13.77;12.57;;;20.60;71.80;;;23.69;51.01;101601.63;5093999;28;20215;-66
2022/07/01 09:36:41;;;;;;;21.27;13.77;;;20.60;71.30;;;23.71;51.11;101599.50;5092162;28;20211;-67
2022/07/01 09:39:09;;;;;;;13.67;12.37;;;20.60;71.20;;;23.68;50.53;101586.53;5092601;28;20211;-67
2022/07/01 09:41:57;;;;;;;14.60;13.10;;;20.60;70.30;;;23.68;50.64;101585.75;5089762;28;20212;-66
2022/07/01 09:44:27;;;;;;;16.60;15.00;;;20.60;70.20;;;23.68;50.79;101581.16;5091393;28;20265;-67
2022/07/01 09:46:56;;;;;;;18.67;14.00;;;20.60;70.40;;;23.73;50.60;101588.50;5095990;27;20259;-69
2022/07/01 09:49:24;;;;;;;16.00;14.43;;;20.70;70.90;;;23.70;50.48;101584.41;5093423;28;20192;-68
2022/07/01 09:51:52;;;;;;;15.37;13.77;;;20.70;70.10;;;23.64;50.55;101588.09;5093709;28;20226;-67
2022/07/01 09:54:21;;;;;;;16.07;14.40;;;20.60;70.00;;;23.64;50.62;101590.78;5103497;28;20235;-68
2022/07/01 09:56:48;;;;;;;18.20;14.50;;;20.60;70.00;;;23.65;50.66;101592.41;5104443;28;20562;-68
2022/07/01 09:59:17;;;;;;;15.43;13.83;;;20.60;70.20;;;23.69;50.65;101595.44;5105432;28;20279;-67
2022/07/01 10:01:47;;;;;;;15.57;13.07;;;20.60;69.70;;;23.71;50.22;101594.13;5092747;28;20564;-68
2022/07/01 10:04:17;;;;;;;13.67;12.23;;;20.60;69.80;;;23.74;49.91;101600.91;5091423;27;20204;-66
2022/07/01 10:07:15;;;;;;;15.30;13.77;;;20.60;69.60;;;23.73;50.39;101597.38;5093150;28;20552;-65
2022/07/01 10:10:03;;;;;;;14.10;12.80;;;20.70;69.90;;;23.82;50.21;101585.19;5103868;28;20201;-67
2022/07/01 10:12:38;;;;;;;16.30;13.33;;;20.70;69.60;;;23.91;50.03;101599.91;5095014;28;20207;-67
2022/07/01 10:15:11;;;;;;;16.93;14.07;;;20.80;69.50;;;23.95;49.62;101592.97;5087842;28;20337;-66
2022/07/01 10:17:45;;;;;;;16.80;14.37;;;20.80;69.30;;;23.97;49.71;101596.22;5091715;28;20701;-66
2022/07/01 10:20:16;;;;;;;15.90;12.57;;;20.80;69.30;;;24.01;49.56;101592.00;5082310;28;20272;-67
2022/07/01 10:22:53;;;;;;;14.57;13.13;;;20.90;69.10;;;24.04;49.05;101602.28;5085793;28;20645;-67
2022/07/01 10:25:42;;;;;;;15.40;13.77;;;20.90;68.50;;;23.99;49.13;101609.44;5089618;28;20234;-67
2022/07/01 10:28:25;;;;;;;14.97;12.20;;;20.90;68.00;;;24.00;49.43;101611.91;5091175;28;20275;-68
2022/07/01 10:31:02;;;;;;;14.70;13.20;;;20.90;68.30;;;24.03;48.68;101610.59;5089270;28;20271;-67